Paramount Helsinki — 2CWB3 — position and weather

sailwx.info

Track history (hours):
 
Tides and Currents Weather Stations Pressure Air Temp Water Temp Dewpoint Dewpoint Depression Visibility Wind Speed Wind Dir Waves Ship Positions

Paramount Helsinki

Last reported at 2014-Sep-01 07:33 UTC. Time now 2014-Sep-19 13:55 UTC.
Position N 29°20' W 094°41'.
Warning: this ship's position is 18 days out of date.

Length 250 m; draft 8.7 m.

Type: Ship. MMSI: 235076275.

Date/timePositionNaut miles runAvg speedWind from/ knotsBaromVisibWave heightAir tempDewpointWater temp
2014-Sep-01 07:33N 29°20' W 094°41'9 9.4
2014-Sep-01 06:33N 29°26' W 094°50'1110.8
2014-Sep-01 05:33N 29°35' W 094°56'10 9.6
2014-Sep-01 04:33N 29°43' W 095°01'5 5.4
2014-Sep-01 03:33N 29°44' W 095°07'0 0.2
2014-Sep-01 02:28N 29°44' W 095°07'1 0.0
2014-Aug-30 15:33N 29°45' W 095°06'5 4.9
2014-Aug-30 14:34N 29°43' W 095°01'9 9.1
2014-Aug-30 13:33N 29°35' W 094°56'1111.0
2014-Aug-30 12:33N 29°25' W 094°50'10 9.8
2014-Aug-30 11:33N 29°20' W 094°40'  
2014-Aug-27 19:29N 29°59' W 090°24'1010.8
2014-Aug-27 18:33N 30°03' W 090°35'1111.3
2014-Aug-27 17:33N 29°60' W 090°48'  
2014-Aug-25 13:09N 30°19' W 091°13'6 5.8
2014-Aug-25 12:10N 30°16' W 091°07'5 7.5
2014-Aug-25 11:33N 30°12' W 091°10'3 1.0
2014-Aug-25 08:30N 30°12' W 091°07'0 0.0
2014-Aug-25 07:12N 30°12' W 091°07'0 0.0
2014-Aug-25 05:33N 30°12' W 091°07'6 0.4
2014-Aug-24 15:05N 30°08' W 091°01'3 5.4
2014-Aug-24 14:32N 30°07' W 090°58'6 5.0
2014-Aug-24 13:26N 30°04' W 090°53'6 6.7
2014-Aug-24 12:33N 29°59' W 090°49'8 8.3
2014-Aug-24 11:34N 30°03' W 090°40'7 6.7
2014-Aug-24 10:33N 30°03' W 090°33'7 6.8
2014-Aug-24 09:33N 29°60' W 090°26'7 6.7
2014-Aug-24 08:33N 29°56' W 090°19'1 1.3
2014-Aug-24 07:26N 29°58' W 090°18'0 0.0
2014-Aug-24 06:26N 29°58' W 090°18'0 0.0
2014-Aug-24 05:32N 29°58' W 090°18'0 0.0
2014-Aug-24 04:32N 29°58' W 090°18'0 0.0
2014-Aug-24 03:32N 29°58' W 090°18'0 0.0
2014-Aug-24 02:20N 29°58' W 090°18'0 0.0
2014-Aug-24 01:32N 29°58' W 090°18'0 0.0
2014-Aug-24 00:29N 29°58' W 090°18'0 0.0
2014-Aug-23 23:23N 29°58' W 090°18'0 0.0
2014-Aug-23 22:29N 29°58' W 090°18'0 0.0
2014-Aug-23 21:32N 29°58' W 090°18'0 0.0
2014-Aug-23 20:32N 29°58' W 090°18'0 0.0
2014-Aug-23 19:32N 29°58' W 090°18'0 0.0
2014-Aug-23 03:26N 29°58' W 090°18'0 0.0
2014-Aug-23 02:20N 29°58' W 090°18'0 0.0
2014-Aug-23 01:26N 29°58' W 090°18'0 0.0
2014-Aug-23 00:20N 29°58' W 090°18'0 0.0
2014-Aug-22 23:26N 29°58' W 090°18'0 0.0
2014-Aug-22 12:29N 29°58' W 090°18'0 0.0
2014-Aug-22 11:32N 29°58' W 090°18'0 0.0
2014-Aug-22 10:32N 29°58' W 090°18'0 0.0
2014-Aug-22 09:32N 29°58' W 090°18'0 0.0
2014-Aug-22 08:29N 29°58' W 090°18'  
Track history (hours):
 
Tides and Currents Weather Stations Pressure Air Temp Water Temp Dewpoint Dewpoint Depression Visibility Wind Speed Wind Dir Waves Ship Positions

Paramount Helsinki

Last reported at 2014-Sep-01 07:33 UTC. Time now 2014-Sep-19 13:55 UTC.
Position N 29°20' W 094°41'.
Warning: this ship's position is 18 days out of date.

Length 250 m; draft 8.7 m.

Type: Ship. MMSI: 235076275.

Date/timePositionNaut miles runAvg speedWind from/ knotsBaromVisibWave heightAir tempDewpointWater temp
2014-Sep-01 07:33N 29°20' W 094°41'9 9.4
2014-Sep-01 06:33N 29°26' W 094°50'1110.8
2014-Sep-01 05:33N 29°35' W 094°56'10 9.6
2014-Sep-01 04:33N 29°43' W 095°01'5 5.4
2014-Sep-01 03:33N 29°44' W 095°07'0 0.2
2014-Sep-01 02:28N 29°44' W 095°07'1 0.0
2014-Aug-30 15:33N 29°45' W 095°06'5 4.9
2014-Aug-30 14:34N 29°43' W 095°01'9 9.1
2014-Aug-30 13:33N 29°35' W 094°56'1111.0
2014-Aug-30 12:33N 29°25' W 094°50'10 9.8
2014-Aug-30 11:33N 29°20' W 094°40'  
2014-Aug-27 19:29N 29°59' W 090°24'1010.8
2014-Aug-27 18:33N 30°03' W 090°35'1111.3
2014-Aug-27 17:33N 29°60' W 090°48'  
2014-Aug-25 13:09N 30°19' W 091°13'6 5.8
2014-Aug-25 12:10N 30°16' W 091°07'5 7.5
2014-Aug-25 11:33N 30°12' W 091°10'3 1.0
2014-Aug-25 08:30N 30°12' W 091°07'0 0.0
2014-Aug-25 07:12N 30°12' W 091°07'0 0.0
2014-Aug-25 05:33N 30°12' W 091°07'6 0.4
2014-Aug-24 15:05N 30°08' W 091°01'3 5.4
2014-Aug-24 14:32N 30°07' W 090°58'6 5.0
2014-Aug-24 13:26N 30°04' W 090°53'6 6.7
2014-Aug-24 12:33N 29°59' W 090°49'8 8.3
2014-Aug-24 11:34N 30°03' W 090°40'7 6.7
2014-Aug-24 10:33N 30°03' W 090°33'7 6.8
2014-Aug-24 09:33N 29°60' W 090°26'7 6.7
2014-Aug-24 08:33N 29°56' W 090°19'1 1.3
2014-Aug-24 07:26N 29°58' W 090°18'0 0.0
2014-Aug-24 06:26N 29°58' W 090°18'0 0.0
2014-Aug-24 05:32N 29°58' W 090°18'0 0.0
2014-Aug-24 04:32N 29°58' W 090°18'0 0.0
2014-Aug-24 03:32N 29°58' W 090°18'0 0.0
2014-Aug-24 02:20N 29°58' W 090°18'0 0.0
2014-Aug-24 01:32N 29°58' W 090°18'0 0.0
2014-Aug-24 00:29N 29°58' W 090°18'0 0.0
2014-Aug-23 23:23N 29°58' W 090°18'0 0.0
2014-Aug-23 22:29N 29°58' W 090°18'0 0.0
2014-Aug-23 21:32N 29°58' W 090°18'0 0.0
2014-Aug-23 20:32N 29°58' W 090°18'0 0.0
2014-Aug-23 19:32N 29°58' W 090°18'0 0.0
2014-Aug-23 03:26N 29°58' W 090°18'0 0.0
2014-Aug-23 02:20N 29°58' W 090°18'0 0.0
2014-Aug-23 01:26N 29°58' W 090°18'0 0.0
2014-Aug-23 00:20N 29°58' W 090°18'0 0.0
2014-Aug-22 23:26N 29°58' W 090°18'0 0.0
2014-Aug-22 12:29N 29°58' W 090°18'0 0.0
2014-Aug-22 11:32N 29°58' W 090°18'0 0.0
2014-Aug-22 10:32N 29°58' W 090°18'0 0.0
2014-Aug-22 09:32N 29°58' W 090°18'0 0.0
2014-Aug-22 08:29N 29°58' W 090°18'  

Dump ship's entire track history